Time;durP1;ratioP1;P1;durP2;ratioP2;P2;SDS_P1;SDS_P2;PMS_P1;PMS_P2;Temp;Humidity;BMP_temperature;BMP_pressure;BME280_temperature;BME280_humidity;BME280_pressure;Samples;Min_cycle;Max_cycle;Signal;HPM_P1;HPM_P2
2021/07/08 00:00:48;;;;;;;3.13;1.50;;;;;;;27.20;51.66;100646.25;5039419;28;20048;-77
2021/07/08 00:03:33;;;;;;;10.90;1.70;;;;;;;27.01;52.51;100639.47;5044517;28;20422;-79
2021/07/08 00:06:18;;;;;;;3.05;1.70;;;;;;;26.97;52.38;100638.72;5044502;28;20059;-79
2021/07/08 00:09:07;;;;;;;3.53;2.15;;;;;;;26.86;53.02;100640.13;5047292;28;20056;-78
2021/07/08 00:11:52;;;;;;;4.43;2.60;;;;;;;26.40;55.79;100638.97;5045888;28;20051;-80
2021/07/08 00:14:38;;;;;;;6.00;2.10;;;;;;;26.49;55.00;100635.63;5038465;28;20052;-78
2021/07/08 00:17:23;;;;;;;9.20;2.15;;;;;;;25.89;56.64;100627.03;5043627;28;20064;-80
2021/07/08 00:20:08;;;;;;;;;;;;;;;25.42;57.25;100620.53;5045005;28;20056;-79
2021/07/08 00:22:53;;;;;;;7.65;2.80;;;;;;;25.39;57.75;100626.94;5044155;28;19913;-77
2021/07/08 00:25:38;;;;;;;10.77;3.25;;;;;;;25.17;59.04;100631.19;5046826;28;20044;-76
2021/07/08 00:28:23;;;;;;;18.40;3.42;;;;;;;25.07;60.90;100626.56;5046093;28;20040;-78
2021/07/08 00:31:08;;;;;;;4.38;3.30;;;;;;;25.07;61.15;100626.56;5044816;28;20056;-77
2021/07/08 00:33:54;;;;;;;7.07;3.80;;;;;;;25.27;60.12;100629.47;5045549;28;20048;-77
2021/07/08 00:36:39;;;;;;;5.80;2.55;;;;;;;25.52;58.71;100625.16;5046646;28;20056;-77
2021/07/08 00:39:24;;;;;;;2.30;1.85;;;;;;;25.80;57.64;100634.34;5041592;28;20052;-76
2021/07/08 00:42:09;;;;;;;3.80;2.78;;;;;;;26.03;56.62;100631.59;5048060;28;20082;-75
2021/07/08 00:44:54;;;;;;;3.33;1.98;;;;;;;26.28;55.88;100637.56;5042358;28;20040;-79
2021/07/08 00:47:39;;;;;;;8.90;1.90;;;;;;;26.64;54.72;100634.16;5043363;28;20039;-78
2021/07/08 00:50:32;;;;;;;3.92;2.30;;;;;;;26.74;54.14;100636.75;5039881;28;20068;-78
2021/07/08 00:53:20;;;;;;;2.80;2.20;;;;;;;26.69;54.36;100636.47;5044728;28;20056;-77
2021/07/08 00:56:05;;;;;;;5.15;2.63;;;;;;;26.67;54.43;100625.72;5040990;28;20048;-78
2021/07/08 00:59:07;;;;;;;6.47;2.50;;;;;;;26.70;54.34;100635.25;5047459;28;20044;-77
2021/07/08 01:01:53;;;;;;;7.82;2.45;;;;;;;26.60;54.63;100644.59;5044964;28;20040;-78
2021/07/08 01:04:41;;;;;;;3.45;2.08;;;;;;;26.66;54.54;100643.69;5044003;28;20040;-76
2021/07/08 01:07:26;;;;;;;4.57;2.75;;;;;;;26.75;53.89;100646.69;5046797;28;20107;-77
2021/07/08 01:10:14;;;;;;;2.83;1.88;;;;;;;26.78;54.22;100653.41;5043998;28;20526;-76
2021/07/08 01:12:58;;;;;;;4.28;1.90;;;;;;;26.85;53.75;100670.03;5042625;28;20044;-79
2021/07/08 01:15:44;;;;;;;3.22;2.40;;;;;;;26.82;53.97;100668.88;5047476;28;20052;-78
2021/07/08 01:18:28;;;;;;;4.00;2.00;;;;;;;26.88;53.59;100665.63;5045569;28;20040;-78
2021/07/08 01:21:24;;;;;;;2.33;1.63;;;;;;;26.90;53.75;100677.94;5043394;28;20056;-77
2021/07/08 01:24:09;;;;;;;5.80;2.13;;;;;;;26.87;53.50;100684.38;5046634;28;20056;-79
2021/07/08 01:26:54;;;;;;;2.97;2.05;;;;;;;26.95;53.66;100673.88;5046691;28;20048;-77
2021/07/08 01:29:39;;;;;;;4.07;2.08;;;;;;;27.00;53.27;100665.00;5042534;28;20430;-76
2021/07/08 01:32:24;;;;;;;6.60;2.33;;;;;;;27.05;53.12;100672.88;5038835;28;20052;-77
2021/07/08 01:35:10;;;;;;;4.75;2.45;;;;;;;27.08;53.14;100667.22;5045450;28;20056;-78
2021/07/08 01:37:55;;;;;;;3.35;2.30;;;;;;;27.10;53.08;100664.78;5044322;28;20048;-80
2021/07/08 01:40:41;;;;;;;5.40;2.38;;;;;;;27.07;52.61;100671.22;5043303;28;20068;-80
2021/07/08 01:43:25;;;;;;;2.90;1.98;;;;;;;27.11;53.07;100677.53;5045969;28;20513;-79
2021/07/08 01:46:12;;;;;;;5.50;2.10;;;;;;;27.08;52.93;100667.22;5042455;28;20048;-80
2021/07/08 01:48:58;;;;;;;4.55;2.53;;;;;;;27.10;52.68;100681.53;5042800;28;20040;-79
2021/07/08 01:51:44;;;;;;;3.42;2.40;;;;;;;27.12;52.59;100681.88;5044840;28;20040;-78
2021/07/08 01:54:29;;;;;;;6.63;2.65;;;;;;;27.10;53.07;100703.88;5044102;28;20063;-79
2021/07/08 01:57:14;;;;;;;2.92;2.00;;;;;;;27.11;52.77;100697.09;5046721;28;20514;-78
2021/07/08 01:59:59;;;;;;;3.67;2.15;;;;;;;27.15;52.56;100692.22;5044001;28;20044;-79
2021/07/08 02:02:44;;;;;;;6.13;2.30;;;;;;;27.12;52.65;100695.84;5043744;28;20052;-78
2021/07/08 02:05:29;;;;;;;7.47;2.22;;;;;;;27.01;53.14;100700.88;5052081;28;20514;-78
2021/07/08 02:08:14;;;;;;;4.20;2.42;;;;;;;27.04;53.40;100711.16;5046664;28;20095;-76
2021/07/08 02:10:59;;;;;;;10.38;4.72;;;;;;;26.64;55.99;100715.06;5045321;28;20040;-78
2021/07/08 02:13:44;;;;;;;8.27;4.45;;;;;;;26.50;55.80;100706.94;5049602;28;20044;-76
2021/07/08 02:16:30;;;;;;;9.50;5.32;;;;;;;26.23;57.62;100707.75;5050624;28;20052;-77
2021/07/08 02:19:15;;;;;;;5.55;2.80;;;;;;;26.53;55.33;100708.88;5046005;28;20040;-79
2021/07/08 02:21:59;;;;;;;5.00;3.35;;;;;;;26.85;54.67;100711.91;5043969;28;20419;-79
2021/07/08 02:24:44;;;;;;;8.63;5.90;;;;;;;26.63;56.51;100710.69;5046013;28;20155;-79
2021/07/08 02:27:29;;;;;;;7.93;5.32;;;;;;;26.14;58.39;100710.28;5045691;28;20131;-79
2021/07/08 02:30:19;;;;;;;9.70;4.68;;;;;;;26.05;58.60;100712.81;5034280;28;20056;-78
2021/07/08 02:33:04;;;;;;;7.15;3.95;;;;;;;26.38;56.67;100703.53;5042487;28;20040;-76
2021/07/08 02:35:49;;;;;;;6.88;5.80;;;;;;;26.16;58.10;100704.28;5056677;28;20525;-76
2021/07/08 02:38:34;;;;;;;5.32;3.70;;;;;;;26.32;56.82;100701.66;5045517;28;20046;-78
2021/07/08 02:41:19;;;;;;;6.32;3.70;;;;;;;26.60;55.64;100700.41;5048410;28;20418;-78
2021/07/08 02:44:04;;;;;;;6.15;3.53;;;;;;;26.76;55.37;100720.03;5056941;28;20051;-76
2021/07/08 02:46:49;;;;;;;4.97;3.83;;;;;;;26.75;55.33;100710.88;5053386;28;20430;-77
2021/07/08 02:49:33;;;;;;;6.45;4.07;;;;;;;26.78;55.49;100715.59;5048414;28;20047;-78
2021/07/08 02:52:18;;;;;;;8.70;3.90;;;;;;;26.74;55.56;100702.94;5055035;28;20447;-78
2021/07/08 02:55:04;;;;;;;;;;;;;;;26.64;55.79;100695.53;5055441;28;20056;-79
2021/07/08 02:57:50;;;;;;;6.80;3.80;;;;;;;26.59;55.72;100702.41;5058591;28;19913;-77
2021/07/08 03:00:35;;;;;;;12.32;4.63;;;;;;;26.61;55.51;100707.56;5045717;28;20044;-77
2021/07/08 03:03:20;;;;;;;16.38;4.53;;;;;;;26.57;55.34;100698.44;5035223;28;20431;-78
2021/07/08 03:06:05;;;;;;;6.60;3.83;;;;;;;26.47;55.02;100700.19;5039282;28;20056;-77
2021/07/08 03:08:49;;;;;;;;;;;;;;;26.48;54.58;100704.56;5048276;28;20521;-77
2021/07/08 03:11:34;;;;;;;10.03;2.73;;;;;;;26.43;54.38;100693.91;5055110;28;19912;-75
2021/07/08 03:14:18;;;;;;;5.03;2.45;;;;;;;26.35;54.48;100692.44;5058669;28;20657;-77
2021/07/08 03:17:03;;;;;;;6.70;2.60;;;;;;;26.44;53.99;100705.84;5057633;28;20185;-77
2021/07/08 03:19:48;;;;;;;9.95;2.38;;;;;;;26.56;53.53;100710.84;5053390;28;20048;-77
2021/07/08 03:22:33;;;;;;;5.63;1.92;;;;;;;26.46;53.70;100703.44;5058989;28;20052;-77
2021/07/08 03:25:19;;;;;;;3.67;1.73;;;;;;;26.38;53.72;100697.16;5057158;28;20056;-77
2021/07/08 03:28:04;;;;;;;6.25;2.10;;;;;;;26.44;53.27;100695.47;5054252;28;20052;-78
2021/07/08 03:30:49;;;;;;;7.78;2.03;;;;;;;26.46;53.34;100693.06;5045225;28;20045;-77
2021/07/08 03:33:37;;;;;;;3.55;1.83;;;;;;;26.42;53.52;100702.69;5065928;28;20052;-75
2021/07/08 03:36:22;;;;;;;10.07;2.78;;;;;;;26.27;53.51;100697.34;5058986;28;20048;-75
2021/07/08 03:39:08;;;;;;;5.35;2.47;;;;;;;26.22;53.14;100714.53;5070137;28;20068;-78
2021/07/08 03:41:53;;;;;;;4.53;1.70;;;;;;;26.20;54.10;100718.94;5042506;28;20064;-77
2021/07/08 03:44:37;;;;;;;5.63;2.08;;;;;;;26.22;53.94;100720.13;5034891;28;20052;-77
2021/07/08 03:47:21;;;;;;;;;;;;;;;26.25;54.07;100710.13;5033566;28;20053;-77
2021/07/08 03:50:08;;;;;;;4.95;2.08;;;;;;;26.31;53.70;100702.88;5050130;28;19916;-78
2021/07/08 03:52:53;;;;;;;12.95;2.00;;;;;;;26.22;53.69;100706.19;5052484;28;20410;-78
2021/07/08 03:55:37;;;;;;;3.58;2.13;;;;;;;26.07;54.41;100707.56;5033128;28;20042;-77
2021/07/08 03:58:22;;;;;;;6.45;2.22;;;;;;;26.15;54.13;100688.75;5035846;28;20056;-76
2021/07/08 04:01:07;;;;;;;6.60;2.60;;;;;;;26.21;54.07;100687.84;5036181;28;20078;-79
2021/07/08 04:03:52;;;;;;;7.65;2.53;;;;;;;26.24;53.83;100675.09;5052984;28;20414;-76
2021/07/08 04:06:38;;;;;;;12.90;3.80;;;;;;;26.24;54.25;100684.25;5056475;28;20060;-78
2021/07/08 04:09:23;;;;;;;8.60;3.00;;;;;;;26.26;54.32;100686.63;5051310;28;20043;-78
2021/07/08 04:12:09;;;;;;;13.40;3.53;;;;;;;26.38;54.15;100689.59;5040917;28;20049;-78
2021/07/08 04:14:53;;;;;;;11.35;3.08;;;;;;;26.37;54.04;100690.81;5046966;28;20558;-77
2021/07/08 04:17:37;;;;;;;;;;;;;;;26.35;54.09;100693.25;5054048;28;20051;-77
2021/07/08 04:20:23;;;;;;;5.78;2.72;;;;;;;26.42;54.24;100697.88;5048669;28;20316;-77
2021/07/08 04:23:11;;;;;;;7.15;4.40;;;;;;;26.50;53.82;100690.22;5053739;28;20040;-76
2021/07/08 04:25:56;;;;;;;6.90;3.05;;;;;;;26.41;54.16;100695.56;5055035;28;20124;-76
2021/07/08 04:28:41;;;;;;;8.18;3.65;;;;;;;26.28;54.23;100701.72;5049449;28;20120;-75
2021/07/08 04:31:26;;;;;;;8.68;3.30;;;;;;;26.43;54.22;100705.06;5036999;28;20040;-76
2021/07/08 04:34:11;;;;;;;6.20;3.35;;;;;;;26.29;54.52;100699.72;5054680;28;20474;-76
2021/07/08 04:36:55;;;;;;;5.97;3.22;;;;;;;26.23;54.38;100707.75;5053627;28;20048;-76
2021/07/08 04:39:40;;;;;;;6.28;3.22;;;;;;;26.26;54.59;100715.28;5048768;28;20044;-78
2021/07/08 04:42:25;;;;;;;7.43;2.63;;;;;;;26.39;53.85;100705.13;5041129;28;20053;-79
2021/07/08 04:45:10;;;;;;;;;;;;;;;26.32;52.61;100707.22;5055906;28;20056;-79
2021/07/08 04:47:55;;;;;;;3.03;1.63;;;;;;;26.32;52.23;100705.22;5046372;28;19917;-78
2021/07/08 04:50:40;;;;;;;6.15;1.80;;;;;;;26.30;51.42;100710.44;5048845;28;20112;-79
2021/07/08 04:53:25;;;;;;;2.47;1.63;;;;;;;26.43;50.71;100715.41;5041342;28;20116;-79
2021/07/08 04:56:09;;;;;;;4.70;1.52;;;;;;;26.38;50.38;100705.53;5033431;28;20064;-79
2021/07/08 04:58:54;;;;;;;8.77;1.90;;;;;;;26.50;50.37;100720.88;5035598;28;20060;-78
2021/07/08 05:01:39;;;;;;;5.13;1.50;;;;;;;26.57;49.85;100717.97;5037349;28;20061;-78
2021/07/08 05:04:23;;;;;;;8.70;1.45;;;;;;;26.70;49.96;100722.53;5035555;28;20414;-78
2021/07/08 05:07:11;;;;;;;4.43;1.58;;;;;;;26.76;49.43;100728.41;5056501;28;20426;-78
2021/07/08 05:09:56;;;;;;;5.00;1.23;;;;;;;26.85;49.57;100737.03;5038166;28;20044;-79
2021/07/08 05:12:41;;;;;;;3.50;1.90;;;;;;;26.91;49.48;100740.16;5051309;28;20072;-78
2021/07/08 05:15:26;;;;;;;10.07;2.20;;;;;;;26.92;49.59;100747.31;5048865;28;20048;-78
2021/07/08 05:18:11;;;;;;;14.48;3.35;;;;;;;26.91;50.17;100740.16;5037896;28;20510;-77
2021/07/08 05:20:56;;;;;;;5.15;2.28;;;;;;;26.99;50.19;100742.38;5044196;28;20052;-77
2021/07/08 05:23:41;;;;;;;7.82;2.22;;;;;;;27.21;49.95;100740.75;5051309;28;20064;-77
2021/07/08 05:26:27;;;;;;;6.80;2.40;;;;;;;27.35;49.67;100734.09;5045984;28;20044;-78
2021/07/08 05:29:12;;;;;;;23.95;3.22;;;;;;;27.50;49.48;100729.84;5042404;28;20422;-78
2021/07/08 05:31:57;;;;;;;14.48;2.35;;;;;;;27.58;49.46;100731.25;5054372;28;20056;-78
2021/07/08 05:34:42;;;;;;;10.25;2.13;;;;;;;27.59;49.63;100732.84;5051312;28;20414;-77
2021/07/08 05:37:27;;;;;;;11.52;2.08;;;;;;;27.66;49.87;100731.91;5055696;28;20043;-80
2021/07/08 05:40:12;;;;;;;3.70;1.67;;;;;;;27.82;49.33;100726.38;5046199;28;20513;-76
2021/07/08 05:42:57;;;;;;;11.60;2.72;;;;;;;27.92;49.15;100736.53;5045774;28;20049;-79
2021/07/08 05:45:42;;;;;;;20.60;5.15;;;;;;;28.01;48.79;100735.94;5045883;28;20056;-78
2021/07/08 05:48:27;;;;;;;68.32;10.38;;;;;;;27.98;49.12;100737.59;5041838;28;20779;-78
2021/07/08 05:51:12;;;;;;;63.85;12.73;;;;;;;28.08;49.11;100744.94;5056717;28;20041;-78
2021/07/08 05:53:59;;;;;;;44.45;7.25;;;;;;;28.02;49.12;100752.28;5054157;28;20041;-78
2021/07/08 05:56:44;;;;;;;27.23;4.82;;;;;;;28.07;48.74;100746.16;5058694;28;20059;-78
2021/07/08 05:59:29;;;;;;;10.02;3.15;;;;;;;28.15;48.43;100758.00;5057494;28;20040;-78
2021/07/08 06:02:14;;;;;;;13.30;2.28;;;;;;;28.12;48.81;100767.25;5057017;28;20051;-79
2021/07/08 06:05:00;;;;;;;7.40;1.80;;;;;;;27.96;48.90;100759.59;5060713;28;20402;-77
2021/07/08 06:07:45;;;;;;;7.70;1.63;;;;;;;27.97;49.31;100763.97;5058204;28;20068;-79
2021/07/08 06:10:30;;;;;;;5.32;1.48;;;;;;;27.87;49.33;100759.41;5055375;28;20055;-78
2021/07/08 06:13:15;;;;;;;8.35;1.65;;;;;;;27.86;49.65;100760.63;5060954;28;20068;-78
2021/07/08 06:15:59;;;;;;;5.43;1.65;;;;;;;27.96;49.05;100762.38;5059158;28;20067;-78
2021/07/08 06:18:45;;;;;;;8.00;1.55;;;;;;;27.79;49.54;100757.97;5057055;28;20059;-79
2021/07/08 06:21:29;;;;;;;7.07;1.50;;;;;;;27.78;49.40;100758.41;5055396;28;20048;-78
2021/07/08 06:24:15;;;;;;;6.60;1.73;;;;;;;27.75;49.75;100759.25;5059438;28;20052;-79
2021/07/08 06:27:00;;;;;;;6.38;1.92;;;;;;;27.82;49.51;100759.91;5057608;28;20048;-79
2021/07/08 06:29:45;;;;;;;13.48;1.63;;;;;;;27.69;49.14;100780.53;5055347;28;20051;-78
2021/07/08 06:32:30;;;;;;;9.80;1.55;;;;;;;27.47;49.66;100777.38;5060139;28;20060;-80
2021/07/08 06:35:18;;;;;;;9.07;1.40;;;;;;;27.45;50.18;100775.00;5057924;28;20052;-79
2021/07/08 06:38:03;;;;;;;6.32;1.70;;;;;;;27.48;50.01;100762.19;5055339;28;20537;-78
2021/07/08 06:40:49;;;;;;;8.50;1.33;;;;;;;27.45;50.23;100757.44;5054936;28;20048;-78
2021/07/08 06:43:34;;;;;;;7.93;2.30;;;;;;;27.42;50.30;100772.28;5057390;28;20557;-79
2021/07/08 06:46:25;;;;;;;5.93;2.00;;;;;;;27.07;53.43;100782.13;5055434;28;20509;-78
2021/07/08 06:49:10;;;;;;;2.40;1.08;;;;;;;27.02;53.40;100749.88;5058345;28;20043;-80
2021/07/08 06:51:55;;;;;;;10.65;2.00;;;;;;;27.21;52.30;100742.78;5056812;28;20048;-78
2021/07/08 06:54:42;;;;;;;10.80;1.70;;;;;;;27.32;51.98;100776.06;5054791;28;20056;-78
2021/07/08 06:57:26;;;;;;;7.07;1.92;;;;;;;26.88;52.47;100800.38;5058925;28;20406;-78
2021/07/08 07:00:11;;;;;;;4.93;1.77;;;;;;;26.34;57.61;100814.34;5055694;28;20048;-78
2021/07/08 07:02:58;;;;;;;13.48;1.67;;;;;;;26.14;58.21;100815.41;5055200;28;20415;-77
2021/07/08 07:05:42;;;;;;;8.70;2.17;;;;;;;26.32;56.06;100782.50;5058764;28;20064;-77
2021/07/08 07:08:27;;;;;;;6.70;1.90;;;;;;;26.65;55.74;100744.53;5051772;28;20053;-78
2021/07/08 07:11:12;;;;;;;4.45;2.15;;;;;;;26.74;56.92;100697.34;5044166;28;20044;-77
2021/07/08 07:13:57;;;;;;;8.30;1.92;;;;;;;26.87;55.82;100705.94;5045808;28;20168;-79
2021/07/08 07:16:42;;;;;;;6.13;2.17;;;;;;;26.93;57.05;100760.03;5041601;28;20048;-80
2021/07/08 07:19:27;;;;;;;21.65;2.00;;;;;;;27.38;54.66;100779.97;5039218;28;20105;-80
2021/07/08 07:22:12;;;;;;;13.05;2.15;;;;;;;27.69;53.58;100784.13;5039134;28;20060;-78
2021/07/08 07:24:58;;;;;;;6.82;2.50;;;;;;;27.72;56.02;100800.06;5036009;28;20049;-78
2021/07/08 07:27:42;;;;;;;9.02;2.55;;;;;;;28.01;54.59;100789.84;5035261;28;20052;-79
2021/07/08 07:30:27;;;;;;;7.90;1.92;;;;;;;28.79;52.23;100774.06;5034464;28;20052;-79
2021/07/08 07:33:12;;;;;;;4.63;1.92;;;;;;;29.13;51.45;100773.59;5037290;28;20056;-80
2021/07/08 07:35:57;;;;;;;14.48;2.10;;;;;;;29.21;51.39;100769.34;5035613;28;20060;-80
2021/07/08 07:38:43;;;;;;;12.65;2.22;;;;;;;29.28;50.42;100768.38;5038825;28;20068;-80
2021/07/08 07:41:28;;;;;;;5.63;1.63;;;;;;;29.45;49.09;100767.13;5050767;28;20048;-80
2021/07/08 07:44:12;;;;;;;8.82;2.00;;;;;;;29.62;47.81;100771.44;5040836;28;20052;-79
2021/07/08 07:46:57;;;;;;;6.00;2.35;;;;;;;29.80;47.34;100772.94;5049709;28;20052;-79
2021/07/08 07:49:42;;;;;;;5.70;2.20;;;;;;;29.96;46.93;100770.88;5056264;28;20048;-79
2021/07/08 07:52:28;;;;;;;5.68;2.15;;;;;;;29.53;47.64;100776.91;5060450;28;20068;-82
2021/07/08 07:55:13;;;;;;;51.75;11.63;;;;;;;29.65;47.23;100769.78;5054336;28;20482;-83
2021/07/08 07:57:59;;;;;;;54.00;12.15;;;;;;;29.97;46.66;100768.84;5041007;28;20042;-82
2021/07/08 08:00:44;;;;;;;16.35;3.85;;;;;;;30.14;45.00;100768.28;5038085;28;20410;-82
2021/07/08 08:03:29;;;;;;;19.98;3.35;;;;;;;29.84;45.96;100768.78;5040945;28;20052;-86
2021/07/08 08:09:17;;;;;;;11.30;2.47;;;;;;;29.30;46.63;100769.53;5056488;28;20068;-82
2021/07/08 08:12:03;;;;;;;11.85;2.17;;;;;;;29.16;47.00;100777.50;5055009;28;20052;-85
2021/07/08 08:14:50;;;;;;;15.20;2.28;;;;;;;29.01;46.42;100776.31;5051092;28;20044;-84
2021/07/08 08:17:36;;;;;;;5.07;2.60;;;;;;;28.91;46.76;100781.75;5049006;28;20048;-86
2021/07/08 08:20:21;;;;;;;9.30;2.15;;;;;;;28.82;47.04;100770.38;5054286;28;20056;-85
2021/07/08 08:23:06;;;;;;;9.60;2.53;;;;;;;28.78;46.93;100769.69;5057262;28;20421;-84
2021/07/08 08:25:51;;;;;;;11.23;2.67;;;;;;;28.73;46.69;100767.44;5053686;28;20043;-83
2021/07/08 08:28:36;;;;;;;6.65;1.85;;;;;;;28.70;46.59;100773.84;5050676;28;20056;-84
2021/07/08 08:31:21;;;;;;;8.20;2.53;;;;;;;28.68;47.04;100776.31;5057261;28;20048;-85
2021/07/08 08:34:06;;;;;;;6.20;2.28;;;;;;;28.56;46.66;100757.41;5055362;28;20060;-84
2021/07/08 08:36:51;;;;;;;7.20;2.30;;;;;;;28.61;46.77;100765.28;5058177;28;20051;-84
2021/07/08 08:39:36;;;;;;;11.30;2.42;;;;;;;28.64;46.53;100756.03;5057115;28;20048;-84
2021/07/08 08:42:24;;;;;;;11.40;2.33;;;;;;;28.67;46.31;100755.16;5060997;28;20160;-85
2021/07/08 08:45:18;;;;;;;6.22;2.83;;;;;;;28.68;46.60;100750.34;5056139;28;20059;-84
2021/07/08 08:48:12;;;;;;;4.85;1.83;;;;;;;28.57;46.56;100733.03;5046697;28;20049;-84
2021/07/08 08:50:57;;;;;;;9.27;1.92;;;;;;;28.70;46.00;100757.06;5058563;28;20461;-86
2021/07/08 08:53:42;;;;;;;5.00;1.55;;;;;;;28.66;45.45;100750.78;5054053;28;20052;-85
2021/07/08 08:56:27;;;;;;;4.80;1.50;;;;;;;28.72;45.12;100749.06;5063785;28;20078;-86
2021/07/08 09:15:16;;;;;;;2.40;1.25;;;;;;;28.91;42.63;100722.16;5108812;27;20372;-71
2021/07/08 09:18:01;;;;;;;3.45;1.35;;;;;;;28.89;42.18;100717.03;5116015;28;20625;-70
2021/07/08 09:20:46;;;;;;;9.38;1.67;;;;;;;28.90;41.91;100724.16;5115735;28;20519;-72
2021/07/08 09:23:31;;;;;;;2.22;1.17;;;;;;;28.92;42.60;100735.72;5114657;28;20043;-70
2021/07/08 09:26:17;;;;;;;5.28;2.03;;;;;;;28.92;42.37;100735.72;5116274;28;20055;-70
2021/07/08 09:29:09;;;;;;;3.80;1.48;;;;;;;28.96;42.69;100748.84;5116066;28;20051;-72
2021/07/08 09:31:59;;;;;;;7.03;1.73;;;;;;;28.94;42.51;100738.09;5116105;28;20515;-71
2021/07/08 09:34:50;;;;;;;5.05;2.10;;;;;;;28.98;42.53;100729.59;5110941;28;20058;-72
2021/07/08 09:37:35;;;;;;;2.67;1.50;;;;;;;28.99;42.35;100717.16;5116091;28;20434;-71
2021/07/08 09:40:20;;;;;;;162.73;10.38;;;;;;;29.12;42.17;100715.19;5109549;28;20043;-71
2021/07/08 09:43:05;;;;;;;8.43;2.00;;;;;;;29.02;43.39;100714.25;5113225;28;20039;-69
2021/07/08 09:45:50;;;;;;;9.27;1.58;;;;;;;28.93;42.68;100702.91;5113709;28;20054;-68
2021/07/08 09:48:37;;;;;;;10.50;2.25;;;;;;;28.83;47.13;100704.00;5096669;28;20058;-67
2021/07/08 09:51:30;;;;;;;3.22;1.50;;;;;;;28.56;48.02;100698.66;5095606;28;20055;-68
2021/07/08 09:57:40;;;;;;;23.92;2.63;;;;;;;28.90;42.71;100703.81;5095199;28;20067;-68
2021/07/08 10:00:25;;;;;;;8.93;1.95;;;;;;;29.17;41.14;100707.03;5096374;28;20039;-65
2021/07/08 10:03:10;;;;;;;5.50;1.63;;;;;;;29.35;40.13;100700.19;5102866;28;20397;-65
2021/07/08 10:05:55;;;;;;;3.75;1.38;;;;;;;29.46;40.81;100687.41;5100255;28;20055;-64
2021/07/08 10:08:41;;;;;;;3.70;1.63;;;;;;;29.60;40.91;100675.00;5095930;28;21007;-65
2021/07/08 10:11:27;;;;;;;26.58;2.30;;;;;;;29.77;39.64;100670.88;5100218;28;20038;-65
2021/07/08 10:14:12;;;;;;;2.80;1.38;;;;;;;29.81;39.07;100676.38;5096065;28;20042;-62
2021/07/08 10:16:57;;;;;;;6.22;1.60;;;;;;;29.83;39.27;100671.09;5087137;28;20512;-65
2021/07/08 10:19:46;;;;;;;2.58;1.60;;;;;;;29.91;39.78;100678.09;5095005;28;20503;-64
2021/07/08 10:22:31;;;;;;;6.82;1.60;;;;;;;30.00;39.60;100666.97;5082389;28;20058;-65
2021/07/08 10:25:16;;;;;;;7.45;1.50;;;;;;;30.16;38.93;100658.44;5081101;28;20055;-64
2021/07/08 10:28:02;;;;;;;7.68;2.92;;;;;;;30.30;38.76;100662.78;5086926;28;20063;-63
2021/07/08 10:30:50;;;;;;;5.03;1.52;;;;;;;30.34;39.01;100663.44;5085535;28;20531;-65
2021/07/08 10:33:35;;;;;;;8.05;1.73;;;;;;;30.38;39.09;100664.91;5083873;28;20059;-63
2021/07/08 10:36:30;;;;;;;14.35;1.80;;;;;;;30.50;38.09;100655.69;5089205;28;20047;-65
2021/07/08 10:39:19;;;;;;;3.85;1.38;;;;;;;30.45;38.49;100650.63;5083333;28;20051;-65
2021/07/08 10:42:04;;;;;;;6.07;1.85;;;;;;;30.55;38.13;100663.53;5087846;28;20050;-65
2021/07/08 10:44:50;;;;;;;5.78;1.50;;;;;;;30.46;38.36;100651.41;5083437;28;20516;-65
2021/07/08 10:47:39;;;;;;;10.30;2.80;;;;;;;30.43;38.46;100644.69;5081583;28;20064;-65
2021/07/08 10:50:42;;;;;;;4.40;1.60;;;;;;;30.42;38.03;100643.13;5084433;28;20047;-64
2021/07/08 10:53:42;;;;;;;12.27;1.60;;;;;;;30.39;37.79;100627.19;5081087;28;20523;-63
2021/07/08 10:56:34;;;;;;;16.15;2.00;;;;;;;30.27;37.43;100621.63;5079136;28;20070;-63
2021/07/08 10:59:19;;;;;;;4.68;1.67;;;;;;;30.13;37.94;100636.88;5082397;28;20043;-64
2021/07/08 11:02:04;;;;;;;1.92;1.60;;;;;;;30.01;38.37;100652.50;5085789;28;20054;-65
2021/07/08 11:04:50;;;;;;;5.07;1.98;;;;;;;29.94;38.60;100661.16;5082720;28;20047;-65
2021/07/08 11:07:45;;;;;;;6.68;2.22;;;;;;;29.92;38.54;100665.66;5085920;28;20059;-65
2021/07/08 11:10:34;;;;;;;3.28;1.80;;;;;;;29.89;38.80;100649.69;5083436;28;20412;-65
2021/07/08 11:13:29;;;;;;;3.13;2.00;;;;;;;29.84;47.23;100622.19;5080531;28;20043;-64
2021/07/08 11:16:38;;;;;;;7.72;1.95;;;;;;;29.77;48.30;100626.78;5083847;28;20047;-65
2021/07/08 11:19:24;;;;;;;3.80;1.77;;;;;;;29.78;43.68;100621.97;5079161;28;20047;-64
2021/07/08 11:22:17;;;;;;;7.80;1.90;;;;;;;29.78;42.86;100610.75;5081982;28;20039;-64
2021/07/08 11:25:03;;;;;;;5.05;1.45;;;;;;;30.01;41.66;100606.84;5084223;28;20059;-64
2021/07/08 11:27:48;;;;;;;8.23;1.92;;;;;;;30.17;41.88;100609.53;5088184;28;20432;-63
2021/07/08 11:30:33;;;;;;;7.05;2.58;;;;;;;30.30;40.59;100607.44;5086773;28;20046;-64
2021/07/08 11:33:20;;;;;;;9.38;2.38;;;;;;;30.33;39.56;100594.53;5083197;28;20043;-63
2021/07/08 11:36:13;;;;;;;6.70;1.92;;;;;;;30.31;39.72;100597.81;5082818;28;20047;-65
2021/07/08 11:38:59;;;;;;;6.05;2.30;;;;;;;30.41;39.85;100593.06;5090254;28;20055;-64
2021/07/08 11:41:47;;;;;;;5.05;2.28;;;;;;;30.43;39.69;100605.38;5089670;28;20427;-64
2021/07/08 11:44:33;;;;;;;4.50;1.70;;;;;;;30.44;39.81;100592.13;5081692;28;20066;-63
2021/07/08 11:47:18;;;;;;;4.35;1.73;;;;;;;30.45;37.67;100591.69;5088334;28;20047;-64
2021/07/08 11:50:03;;;;;;;12.07;3.28;;;;;;;30.40;37.73;100592.28;5085535;28;20047;-63
2021/07/08 11:53:13;;;;;;;5.60;2.10;;;;;;;30.32;37.35;100599.38;5085334;28;20040;-65
2021/07/08 11:55:59;;;;;;;2.97;1.60;;;;;;;30.30;38.16;100606.66;5081552;28;20098;-63
2021/07/08 11:58:44;;;;;;;2.03;1.38;;;;;;;30.17;36.50;100592.69;5083846;28;20039;-63
2021/07/08 12:01:29;;;;;;;3.88;1.98;;;;;;;30.20;35.67;100608.59;5086107;28;20043;-64
2021/07/08 12:04:21;;;;;;;8.88;2.03;;;;;;;30.08;35.45;100613.00;5084294;28;20409;-65
2021/07/08 12:07:06;;;;;;;3.53;1.30;;;;;;;30.16;35.92;100628.38;5081622;28;20540;-65
2021/07/08 12:09:51;;;;;;;7.95;1.45;;;;;;;30.25;35.82;100643.72;5085017;28;20039;-64
2021/07/08 12:12:38;;;;;;;6.25;1.90;;;;;;;30.29;36.82;100662.00;5085004;28;20042;-65
2021/07/08 12:15:25;;;;;;;6.15;1.42;;;;;;;30.29;38.51;100678.84;5082636;28;20040;-65
2021/07/08 12:18:09;;;;;;;6.57;1.70;;;;;;;30.30;38.30;100686.03;5084903;28;20054;-64
2021/07/08 12:20:54;;;;;;;4.18;1.60;;;;;;;30.31;38.56;100689.63;5086682;28;20559;-67
2021/07/08 12:23:39;;;;;;;3.80;1.48;;;;;;;30.29;38.19;100701.28;5081387;28;20429;-67
2021/07/08 12:26:32;;;;;;;3.17;1.40;;;;;;;30.27;39.34;100703.78;5086267;28;20059;-67
2021/07/08 12:29:21;;;;;;;3.40;1.52;;;;;;;30.25;39.13;100695.00;5081361;28;20043;-67
2021/07/08 12:32:10;;;;;;;6.25;1.88;;;;;;;30.25;40.77;100697.81;5083894;28;20039;-67
2021/07/08 12:34:57;;;;;;;4.80;1.85;;;;;;;30.23;40.61;100703.09;5081872;28;20528;-68
2021/07/08 12:37:42;;;;;;;8.80;1.63;;;;;;;30.14;40.64;100702.97;5085441;28;20047;-67
2021/07/08 12:40:27;;;;;;;3.25;1.85;;;;;;;30.11;41.00;100695.47;5080578;28;20047;-67
2021/07/08 12:43:18;;;;;;;7.63;1.48;;;;;;;30.08;41.36;100694.34;5087108;28;20047;-68
2021/07/08 12:46:11;;;;;;;3.42;1.70;;;;;;;30.04;41.84;100702.09;5084470;28;20063;-67
2021/07/08 12:48:56;;;;;;;3.22;1.98;;;;;;;29.97;42.50;100707.16;5080925;28;20038;-69
2021/07/08 12:51:42;;;;;;;9.73;2.30;;;;;;;29.93;42.31;100715.66;5081038;28;20047;-68
2021/07/08 12:54:28;;;;;;;7.25;1.83;;;;;;;29.84;42.35;100715.50;5081796;28;20044;-66
2021/07/08 12:57:15;;;;;;;5.88;1.90;;;;;;;29.81;42.45;100743.66;5083362;28;20047;-66
2021/07/08 13:00:06;;;;;;;9.90;1.75;;;;;;;29.74;42.54;100784.72;5085697;28;20298;-66
2021/07/08 13:02:52;;;;;;;12.93;1.98;;;;;;;29.68;43.71;100794.88;5082741;28;20047;-69
2021/07/08 13:05:40;;;;;;;12.15;2.20;;;;;;;29.32;47.31;100809.09;5080489;28;20043;-67
2021/07/08 13:08:25;;;;;;;4.15;2.30;;;;;;;28.66;53.30;100801.16;5086172;28;20071;-69
2021/07/08 13:11:16;;;;;;;8.02;1.88;;;;;;;28.93;50.11;100770.13;5084873;28;20066;-69
2021/07/08 13:14:24;;;;;;;9.98;1.90;;;;;;;29.09;48.42;100750.50;5082302;28;20039;-68